Map

Track Data

SID SEASON NUMBER BASIN SUBBASIN NAME ISO_TIME NATURE LAT LON WMO_WIND WMO_PRES WMO_AGENCY TRACK_TYPE DIST2LAND LANDFALL IFLAG USA_AGENCY USA_ATCF_ID USA_LAT USA_LON USA_RECORD USA_STATUS USA_WIND USA_PRES USA_SSHS USA_R34_NE USA_R34_SE USA_R34_SW USA_R34_NW USA_R50_NE USA_R50_SE USA_R50_SW USA_R50_NW USA_R64_NE USA_R64_SE USA_R64_SW USA_R64_NW USA_POCI USA_ROCI USA_RMW USA_EYE TOKYO_LAT TOKYO_LON TOKYO_GRADE TOKYO_WIND TOKYO_PRES TOKYO_R50_DIR TOKYO_R50_LONG TOKYO_R50_SHORT TOKYO_R30_DIR TOKYO_R30_LONG TOKYO_R30_SHORT TOKYO_LAND CMA_LAT CMA_LON CMA_CAT CMA_WIND CMA_PRES HKO_LAT HKO_LON HKO_CAT HKO_WIND HKO_PRES NEWDELHI_LAT NEWDELHI_LON NEWDELHI_GRADE NEWDELHI_WIND NEWDELHI_PRES NEWDELHI_CI NEWDELHI_DP NEWDELHI_POCI REUNION_LAT REUNION_LON REUNION_TYPE REUNION_WIND REUNION_PRES REUNION_TNUM REUNION_CI REUNION_RMW REUNION_R34_NE REUNION_R34_SE REUNION_R34_SW REUNION_R34_NW REUNION_R50_NE REUNION_R50_SE REUNION_R50_SW REUNION_R50_NW REUNION_R64_NE REUNION_R64_SE REUNION_R64_SW REUNION_R64_NW BOM_LAT BOM_LON BOM_TYPE BOM_WIND BOM_PRES BOM_TNUM BOM_CI BOM_RMW BOM_R34_NE BOM_R34_SE BOM_R34_SW BOM_R34_NW BOM_R50_NE BOM_R50_SE BOM_R50_SW BOM_R50_NW BOM_R64_NE BOM_R64_SE BOM_R64_SW BOM_R64_NW BOM_ROCI BOM_POCI BOM_EYE BOM_POS_METHOD BOM_PRES_METHOD NADI_LAT NADI_LON NADI_CAT NADI_WIND NADI_PRES WELLINGTON_LAT WELLINGTON_LON WELLINGTON_WIND WELLINGTON_PRES DS824_LAT DS824_LON DS824_STAGE DS824_WIND DS824_PRES TD9636_LAT TD9636_LON TD9636_STAGE TD9636_WIND TD9636_PRES TD9635_LAT TD9635_LON TD9635_WIND TD9635_PRES TD9635_ROCI NEUMANN_LAT NEUMANN_LON NEUMANN_CLASS NEUMANN_WIND NEUMANN_PRES MLC_LAT MLC_LON MLC_CLASS MLC_WIND MLC_PRES USA_GUST BOM_GUST BOM_GUST_PER REUNION_GUST REUNION_GUST_PER USA_SEAHGT USA_SEARAD_NE USA_SEARAD_SE USA_SEARAD_SW USA_SEARAD_NW STORM_SPEED STORM_DIR
1963007S12117 1963 3 SI WA NOT_NAMED 1963-01-06 23:00:00 NR -12.0000 117.200 main 325 324 __________O___ -1 -12.0000 117.200 1 11 268
1963007S12117 1963 3 SI WA NOT_NAMED 1963-01-07 00:00:00 TS -12.0074 117.006 main 324 324 O________OP___ jtwc_sh SH131963 -12.0000 117.000 -1 -12.0000 117.000 TC -12.0149 117.013 1 10 267
1963007S12117 1963 3 SI WA NOT_NAMED 1963-01-07 01:00:00 TS -12.0186 116.844 997 bom main 325 325 P_____O__PP___ SH131963 -12.0147 116.818 -1 -12.0000 117.000 997 -12.0147 116.818 TC -12.0301 116.826 1 10 264
1963007S12117 1963 3 SI WA NOT_NAMED 1963-01-07 03:00:00 TS -12.0630 116.481 main 340 340 P_____P__PP___ SH131963 -12.0452 116.453 -1 -12.1159 116.624 -12.0452 116.453 TC -12.0634 116.453 1 10 261
1963007S12117 1963 3 SI WA NOT_NAMED 1963-01-07 06:00:00 TS -12.1483 115.961 main 349 349 O_____P__OP_O_ jtwc_sh SH131963 -12.1000 115.900 -1 -12.2884 116.063 -12.1000 115.900 TC -12.1270 115.898 1 -12.2000 116.400 TC 35 997 10 259
1963007S12117 1963 3 SI WA NOT_NAMED 1963-01-07 09:00:00 TS -12.2667 115.445 main 385 385 P_____P__PP_P_ SH131963 -12.1774 115.342 -1 -12.4585 115.512 -12.1774 115.342 TC -12.2180 115.355 1 -12.3377 115.900 TC 35 997 10 256
1963007S12117 1963 3 SI WA NOT_NAMED 1963-01-07 11:00:00 TS -12.3593 115.112 main 403 403 P_____P__PO_P_ SH131963 -12.2526 114.978 -1 -12.5703 115.153 -12.2526 114.978 TC -12.3000 115.000 1 -12.4416 115.567 TC 35 997 10 253
1963007S12117 1963 3 SI WA NOT_NAMED 1963-01-07 12:00:00 TS -12.4148 114.961 main 403 403 O_____P__OP_O_ jtwc_sh SH131963 -12.3000 114.800 -1 -12.6256 114.977 -12.3000 114.800 TC -12.3485 114.826 1 -12.5000 115.400 TC 35 997 10 250
1963007S12117 1963 3 SI WA NOT_NAMED 1963-01-07 15:00:00 TS -12.5984 114.445 main 426 426 P_____P__PP_P_ SH131963 -12.4925 114.270 -1 -12.7890 114.464 -12.4925 114.270 TC -12.5179 114.320 1 -12.6999 114.900 TC 35 997 10 249
1963007S12117 1963 3 SI WA NOT_NAMED 1963-01-07 18:00:00 TS -12.7908 113.967 main 452 452 O_____P__OP_O_ jtwc_sh SH131963 -12.7000 113.800 -1 -12.9482 113.981 -12.7000 113.800 TC -12.7057 113.852 1 -12.9000 114.400 TC 35 997 10 248
1963007S12117 1963 3 SI WA NOT_NAMED 1963-01-07 21:00:00 TS -12.9560 113.530 main 485 485 P_____P__PP_P_ SH131963 -12.8649 113.405 -1 -13.1026 113.532 -12.8649 113.405 TC -12.8900 113.438 1 -13.0576 113.870 TC 35 997 9 249
1963007S12117 1963 3 SI WA NOT_NAMED 1963-01-07 23:00:00 TS -13.0544 113.277 main 502 502 P_____P__PO_P_ SH131963 -12.9583 113.192 -1 -13.2025 113.256 -12.9583 113.192 TC -13.0000 113.200 1 -13.1527 113.544 TC 35 997 8 247
1963007S12117 1963 3 SI WA NOT_NAMED 1963-01-08 00:00:00 TS -13.1031 113.166 main 505 505 O_____P__OP_O_ jtwc_sh SH131963 -13.0000 113.100 -1 -13.2516 113.125 -13.0000 113.100 TC -13.0395 113.097 1 -13.2000 113.400 TC 35 997 7 245
1963007S12117 1963 3 SI WA NOT_NAMED 1963-01-08 01:00:00 TS -13.1501 113.068 997 bom main 519 519 P_____O__PP_P_ SH131963 -13.0390 113.019 -1 -13.3000 113.000 997 -13.0390 113.019 TC -13.0755 113.004 1 -13.2499 113.275 TC 35 996 6 243
1963007S12117 1963 3 SI WA NOT_NAMED 1963-01-08 03:00:00 TS -13.2345 112.896 main 524 524 P_____P__PP_P_ SH131963 -13.1074 112.885 -1 -13.3950 112.766 -13.1074 112.885 TC -13.1401 112.839 1 -13.3499 113.062 TC 37 996 5 243
1963007S12117 1963 3 SI WA NOT_NAMED 1963-01-08 06:00:00 TS -13.3546 112.663 main 550 550 O_____P__OP_O_ jtwc_sh SH131963 -13.2000 112.700 -1 -13.5344 112.451 -13.2000 112.700 TC -13.2287 112.631 1 -13.5000 112.800 TC 40 995 5 243
1963007S12117 1963 3 SI WA NOT_NAMED 1963-01-08 09:00:00 TS -13.4695 112.419 main 569 569 P_____P__PP_P_ SH131963 -13.2850 112.457 -1 -13.6726 112.174 -13.2850 112.457 TC -13.3238 112.438 1 -13.6500 112.542 TC 40 994 5 243
1963007S12117 1963 3 SI WA NOT_NAMED 1963-01-08 11:00:00 TS -13.5534 112.255 main 583 583 P_____P__PO_P_ SH131963 -13.3552 112.286 -1 -13.7654 112.005 -13.3552 112.286 TC -13.4000 112.300 1 -13.7500 112.381 TC 40 994 5 242
1963007S12117 1963 3 SI WA NOT_NAMED 1963-01-08 12:00:00 TS -13.6001 112.171 main 584 584 O_____P__OP_O_ jtwc_sh SH131963 -13.4000 112.200 -1 -13.8123 111.926 -13.4000 112.200 TC -13.4458 112.216 1 -13.8000 112.300 TC 40 994 6 237
1963007S12117 1963 3 SI WA NOT_NAMED 1963-01-08 15:00:00 TS -13.7611 111.924 main 605 604 P_____P__PP_P_ SH131963 -13.5850 111.957 -1 -13.9561 111.699 -13.5850 111.957 TC -13.5987 111.954 1 -13.9500 112.050 TC 42 993 6 235
1963007S12117 1963 3 SI WA NOT_NAMED 1963-01-08 18:00:00 TS -13.9382 111.671 main 615 615 O_____P__OP_O_ jtwc_sh SH131963 -13.8000 111.700 -1 -14.1069 111.486 -13.8000 111.700 TC -13.7725 111.679 1 -14.1000 111.800 TC 45 992 6 235
1963007S12117 1963 3 SI WA NOT_NAMED 1963-01-08 21:00:00 TS -14.1153 111.404 main 639 639 P_____P__PP_P_ SH131963 -14.0000 111.407 -1 -14.2671 111.280 -14.0000 111.407 TC -13.9640 111.394 1 -14.2425 111.550 TC 45 991 6 235
1963007S12117 1963 3 SI WA NOT_NAMED 1963-01-08 23:00:00 TS -14.2382 111.221 main 651 651 P_____P__PO_P_ SH131963 -14.1333 111.203 -1 -14.3805 111.142 -14.1333 111.203 TC -14.1000 111.200 1 -14.3443 111.383 TC 45 990 7 235
1963007S12117 1963 3 SI WA NOT_NAMED 1963-01-09 00:00:00 TS -14.3011 111.129 main 663 663 O_____P__OP_O_ jtwc_sh SH131963 -14.2000 111.100 -1 -14.4394 111.071 -14.2000 111.100 TC -14.1671 111.100 1 -14.4000 111.300 TC 45 990 7 234
1963007S12117 1963 3 SI WA NOT_NAMED 1963-01-09 01:00:00 TS -14.3648 111.036 990 bom main 676 676 P_____O__PP_P_ SH131963 -14.2640 111.000 -1 -14.5000 111.000 990 -14.2640 111.000 TC -14.2360 110.998 1 -14.4609 111.217 TC 45 989 7 235
1963007S12117 1963 3 SI WA NOT_NAMED 1963-01-09 03:00:00 TS -14.4967 110.844 main 690 690 P_____P__PP_P_ SH131963 -14.3925 110.800 -1 -14.6286 110.810 -14.3925 110.800 TC -14.3788 110.792 1 -14.5925 111.050 TC 47 989 7 234
1963007S12117 1963 3 SI WA NOT_NAMED 1963-01-09 06:00:00 TS -14.7066 110.553 main 715 715 O_____P__OP_O_ jtwc_sh SH131963 -14.6000 110.500 -1 -14.8323 110.521 -14.6000 110.500 TC -14.6039 110.483 1 -14.8000 110.800 TC 50 988 7 232
1963007S12117 1963 3 SI WA NOT_NAMED 1963-01-09 09:00:00 TS -14.9309 110.263 main 743 743 P_____P__PP_P_ SH131963 -14.8425 110.192 -1 -15.0471 110.231 -14.8425 110.192 TC -14.8391 110.185 1 -14.9925 110.550 TC 52 986 7 231
1963007S12117 1963 3 SI WA NOT_NAMED 1963-01-09 11:00:00 TS -15.0872 110.076 main 770 770 P_____P__PO_P_ SH131963 -15.0140 109.994 -1 -15.1954 110.042 -15.0140 109.994 TC -15.0000 110.000 1 -15.1276 110.383 TC 54 985 7 229
1963007S12117 1963 3 SI WA NOT_NAMED 1963-01-09 12:00:00 TS -15.1667 109.985 main 783 783 O_____P__OP_O_ jtwc_sh SH131963 -15.1000 109.900 -1 -15.2710 109.950 -15.1000 109.900 TC -15.0812 109.908 1 -15.2000 110.300 TC 55 985 7 226
1963007S12117 1963 3 SI WA NOT_NAMED 1963-01-09 15:00:00 TS -15.4107 109.723 main 811 811 P_____P__PP_P_ SH131963 -15.3500 109.635 -1 -15.5020 109.683 -15.3500 109.635 TC -15.3308 109.644 1 -15.4500 110.050 TC 55 984 7 225
1963007S12117 1963 3 SI WA NOT_NAMED 1963-01-09 18:00:00 TS -15.6570 109.485 main 839 833 O_____P__OP_O_ jtwc_sh SH131963 -15.6000 109.400 -1 -15.7384 109.439 -15.6000 109.400 TC -15.5847 109.407 1 -15.7000 109.800 TC 55 983 7 222
1963007S12117 1963 3 SI WA NOT_NAMED 1963-01-09 21:00:00 TS -15.8981 109.264 main 833 830 P_____P__PP_P_ SH131963 -15.8575 109.178 -1 -15.9782 109.225 -15.8575 109.178 TC -15.8364 109.208 1 -15.9000 109.535 TC 57 981 6 220
1963007S12117 1963 3 SI WA NOT_NAMED 1963-01-09 23:00:00 TS -16.0556 109.138 main 828 828 P_____P__PO_P_ SH131963 -16.0224 109.053 -1 -16.1390 109.103 -16.0224 109.053 TC -16.0000 109.100 1 -16.0303 109.372 TC 59 980 6 216
1963007S12117 1963 3 SI WA NOT_NAMED 1963-01-10 00:00:00 TS -16.1326 109.083 main 828 819 O_____P__OP_O_ jtwc_sh SH131963 -16.1000 109.000 -1 -16.2195 109.049 -16.1000 109.000 TC -16.0758 109.047 1 -16.1000 109.300 TC 60 980 6 216
1963007S12117 1963 3 SI WA NOT_NAMED 1963-01-10 01:00:00 TS -16.2066 109.030 980 bom main 826 817 P_____O__PP_P_ SH131963 -16.1697 108.950 -1 -16.3000 109.000 980 -16.1697 108.950 TC -16.1504 109.000 1 -16.1776 109.233 TC 60 980 5 212
1963007S12117 1963 3 SI WA NOT_NAMED 1963-01-10 03:00:00 TS -16.3521 108.940 main 815 798 P_____P__PP_P_ SH131963 -16.3000 108.870 -1 -16.4581 108.902 -16.3000 108.870 TC -16.2969 108.920 1 -16.3425 109.120 TC 60 980 5 206
1963007S12117 1963 3 SI WA NOT_NAMED 1963-01-10 06:00:00 TS -16.5739 108.847 main 805 789 O_____P__OP_O_ jtwc_sh SH131963 -16.5000 108.800 -1 -16.6979 108.786 -16.5000 108.800 TC -16.5155 108.837 1 -16.6000 109.000 TC 60 980 5 196
1963007S12117 1963 3 SI WA NOT_NAMED 1963-01-10 09:00:00 TS -16.8107 108.798 main 789 772 P_____P__PP_P_ SH131963 -16.7425 108.777 -1 -16.9393 108.709 -16.7425 108.777 TC -16.7411 108.800 1 -16.8500 108.935 TC 60 980 5 188
1963007S12117 1963 3 SI WA NOT_NAMED 1963-01-10 11:00:00 TS -16.9738 108.789 main 772 772 P_____P__PO_P_ SH131963 -16.9140 108.789 -1 -17.1004 108.682 -16.9140 108.789 TC -16.9000 108.800 1 -17.0167 108.911 TC 60 980 5 0
1963007S12117 1963 3 SI WA NOT_NAMED 1963-01-10 12:00:00 TS -17.0559 108.789 main 764 749 O_____P__OP_O_ jtwc_sh SH131963 -17.0000 108.800 -1 -17.1808 108.675 -17.0000 108.800 TC -16.9812 108.798 1 -17.1000 108.900 TC 60 980 5 0
1963007S12117 1963 3 SI WA NOT_NAMED 1963-01-10 15:00:00 TS -17.3009 108.792 main 749 741 P_____P__PP_P_ SH131963 -17.2425 108.828 -1 -17.4207 108.686 -17.2425 108.828 TC -17.2345 108.820 1 -17.3575 108.828 TC 60 980 5 176
1963007S12117 1963 3 SI WA NOT_NAMED 1963-01-10 16:00:00 TS -17.3839 108.802 980 bom main 741 733 P_____O__PP_P_ SH131963 -17.3254 108.846 -1 -17.5000 108.700 980 -17.3254 108.846 TC -17.3224 108.838 1 -17.4412 108.810 TC 60 980 5 171
1963007S12117 1963 3 SI WA NOT_NAMED 1963-01-10 18:00:00 TS -17.5514 108.838 main 726 703 O_____P__OP_O_ jtwc_sh SH131963 -17.5000 108.900 -1 -17.6490 108.731 980 -17.5000 108.900 TC -17.5044 108.888 1 -17.6000 108.800 TC 60 980 5 163
1963007S12117 1963 3 SI WA NOT_NAMED 1963-01-10 21:00:00 TS -17.8069 108.937 main 703 680 P_____P__PP_P_ SH131963 -17.7850 109.028 -1 -17.8744 108.819 980 -17.7850 109.028 TC -17.7942 109.000 1 -17.7850 108.863 TC 60 980 6 157
1963007S12117 1963 3 SI WA NOT_NAMED 1963-01-10 23:00:00 TS -17.9896 109.031 main 680 665 P_____P__PO_P_ SH131963 -17.9917 109.139 -1 -18.0319 108.901 980 -17.9917 109.139 TC -18.0000 109.100 7 -17.9188 108.947 TC 60 980 6 154
1963007S12117 1963 3 SI WA NOT_NAMED 1963-01-11 00:00:00 TS -18.0864 109.084 main 665 658 O_____P__OP_O_ jtwc_sh SH131963 -18.1000 109.200 -1 -18.1144 108.949 980 -18.1000 109.200 TC -18.1042 109.154 7 -18.0000 109.000 TC 60 980 7 153
1963007S12117 1963 3 SI WA NOT_NAMED 1963-01-11 01:00:00 TS -18.1883 109.138 980 bom main 658 627 P_____O__PP_P_ SH131963 -18.2109 109.258 -1 -18.2000 109.000 980 -18.2109 109.258 TC -18.2110 109.213 7 -18.0995 109.053 TC 60 980 7 152
1963007S12117 1963 3 SI WA NOT_NAMED 1963-01-11 03:00:00 TS -18.4040 109.262 main 627 590 P_____P__PP_P_ SH131963 -18.4425 109.385 -1 -18.3807 109.117 -18.4425 109.385 TC -18.4322 109.347 7 -18.3275 109.177 TC 60 980 8 150
1963007S12117 1963 3 SI WA NOT_NAMED 1963-01-11 06:00:00 TS -18.7450 109.479 main 590 546 O_____P__OP_O_ jtwc_sh SH131963 -18.8000 109.600 -1 -18.6739 109.331 -18.8000 109.600 TC -18.7810 109.577 7 -18.7000 109.400 TC 60 980 8 147
1963007S12117 1963 3 SI WA NOT_NAMED 1963-01-11 09:00:00 TS -19.0869 109.723 main 546 516 P_____P__PP_P_ SH131963 -19.1425 109.843 -1 -18.9913 109.582 -19.1425 109.843 TC -19.1474 109.829 7 -19.0500 109.643 TC 60 980 8 146
1963007S12117 1963 3 SI WA NOT_NAMED 1963-01-11 11:00:00 TS -19.3220 109.896 main 516 501 P_____P__PO_P_ SH131963 -19.3776 110.014 -1 -19.2153 109.763 -19.3776 110.014 TC -19.4000 110.000 2 -19.2833 109.814 TC 60 980 9 145
1963007S12117 1963 3 SI WA NOT_NAMED 1963-01-11 12:00:00 TS -19.4407 109.984 main 501 459 O_____P__OP_O_ jtwc_sh SH131963 -19.5000 110.100 -1 -19.3308 109.856 -19.5000 110.100 TC -19.5181 110.087 2 -19.4000 109.900 TC 60 980 9 146
1963007S12117 1963 3 SI WA NOT_NAMED 1963-01-11 15:00:00 TS -19.8075 110.247 main 459 409 P_____P__PP_P_ SH131963 -19.8850 110.350 -1 -19.6898 110.141 -19.8850 110.350 TC -19.8797 110.358 2 -19.7500 110.150 TC 60 980 9 147
1963007S12117 1963 3 SI WA NOT_NAMED 1963-01-11 18:00:00 TS -20.1930 110.508 main 409 362 O_____P__OP_O_ jtwc_sh SH131963 -20.3000 110.600 -1 -20.0662 110.423 -20.3000 110.600 TC -20.2646 110.624 2 -20.1000 110.400 TC 60 980 9 148
1963007S12117 1963 3 SI WA NOT_NAMED 1963-01-11 21:00:00 TS -20.5921 110.765 main 362 342 P_____P__PP_P_ SH131963 -20.7275 110.858 -1 -20.4578 110.690 -20.7275 110.858 TC -20.6883 110.865 2 -20.4425 110.658 TC 60 980 9 150
1963007S12117 1963 3 SI WA NOT_NAMED 1963-01-11 23:00:00 TS -20.8741 110.924 main 337 322 P_____P__PO_P_ SH131963 -21.0360 111.022 -1 -20.7263 110.853 -21.0360 111.022 TC -21.0000 111.000 4 -20.6776 110.822 TC 60 980 10 153
1963007S12117 1963 3 SI WA NOT_NAMED 1963-01-12 00:00:00 TS -21.0230 111.002 main 322 301 O_____P__OP_O_ jtwc_sh SH131963 -21.2000 111.100 -1 -20.8625 110.929 -21.2000 111.100 TC -21.1754 111.084 4 -20.8000 110.900 TC 60 980 10 154
1963007S12117 1963 3 SI WA NOT_NAMED 1963-01-12 01:00:00 TS -21.1770 111.083 980 bom main 301 276 P_____O__PP_P_ SH131963 -21.3693 111.188 -1 -21.0000 111.000 980 4 -21.3693 111.188 TC -21.3587 111.165 4 -20.9302 110.978 TC 60 980 10 156
1963007S12117 1963 3 SI WA NOT_NAMED 1963-01-12 03:00:00 TS -21.4982 111.234 main 276 235 P_____P__PP_P_ SH131963 -21.7275 111.352 -1 -21.2850 111.138 980 -21.7275 111.352 TC -21.7431 111.314 4 -21.2000 111.122 TC 60 980 10 160
1963007S12117 1963 3 SI WA NOT_NAMED 1963-01-12 06:00:00 TS -21.9903 111.395 981 bom main 235 216 O_____O__OP_O_ jtwc_sh SH131963 -22.3000 111.500 -1 -21.7000 111.300 981 -22.3000 111.500 TC -22.3419 111.469 4 -21.6000 111.300 TC 60 980 10 168
1963007S12117 1963 3 SI WA NOT_NAMED 1963-01-12 09:00:00 TS -22.4694 111.455 main 215 215 P_____P__PP_P_ SH131963 -22.9071 111.512 -1 -22.0571 111.390 981 -22.9071 111.512 TC -22.9317 111.490 4 -21.9575 111.438 TC 60 980 10 0
1963007S12117 1963 3 SI WA NOT_NAMED 1963-01-12 11:00:00 TS -22.7777 111.417 main 226 226 P_____P__PO_P_ SH131963 -23.3086 111.400 -1 -22.2784 111.409 981 -23.3086 111.400 TC -23.3000 111.400 4 -22.1859 111.489 TC 60 980 9 189
1963007S12117 1963 3 SI WA NOT_NAMED 1963-01-12 12:00:00 TS -22.9282 111.368 main 227 227 O_____P__OP_O_ jtwc_sh SH131963 -23.5000 111.300 -1 -22.3884 111.407 981 -23.5000 111.300 TC -23.4807 111.303 4 -22.3000 111.500 TC 60 981 10 199
1963007S12117 1963 3 SI WA NOT_NAMED 1963-01-12 13:00:00 TS -23.0792 111.302 982 bom main 241 237 P_____O__PP_P_ SH131963 -23.6888 111.166 -1 -22.5000 111.400 982 -23.6888 111.166 TC -23.6579 111.180 4 -22.4140 111.503 TC 59 981 10 207
1963007S12117 1963 3 SI WA NOT_NAMED 1963-01-12 15:00:00 TS -23.3786 111.121 main 250 248 P_____P__PP_P_ SH131963 -24.0454 110.811 -1 -22.7552 111.382 982 -24.0454 110.811 TC -23.9974 110.870 4 -22.6425 111.480 TC 57 982 10 214
1963007S12117 1963 3 SI WA NOT_NAMED 1963-01-12 18:00:00 TS -23.7976 110.783 main 272 272 O_____P__OP_O_ jtwc_sh SH131963 -24.5000 110.200 -1 -23.1518 111.309 983 -24.5000 110.200 TC -24.4531 110.298 4 -23.0000 111.400 TC 55 983 10 217
1963007S12117 1963 3 SI WA NOT_NAMED 1963-01-12 21:00:00 TS -24.1784 110.452 main 294 294 P_____P__PP_P_ SH131963 -24.8674 109.677 -1 -23.5407 111.195 984 -24.8674 109.677 TC -24.8192 109.684 4 -23.4150 111.315 TC 55 983 9 220
1963007S12117 1963 3 SI WA NOT_NAMED 1963-01-12 23:00:00 TS -24.3890 110.234 main 323 323 P_____P__PO_P_ SH131963 -25.0390 109.353 -1 -23.7822 111.102 984 -25.0390 109.353 TC -25.0000 109.300 1 -23.6812 111.242 TC 55 983 8 224
1963007S12117 1963 3 SI WA NOT_NAMED 1963-01-13 00:00:00 TS -24.4777 110.134 main 334 334 O_____P__OP_O_ jtwc_sh SH131963 -25.1000 109.200 -1 -23.8946 111.052 984 -25.1000 109.200 TC -25.0715 109.155 1 -23.8000 111.200 TC 55 984 7 228
1963007S12117 1963 3 SI WA NOT_NAMED 1963-01-13 01:00:00 TS -24.5546 110.037 985 bom main 344 344 P_____O__PP_P_ SH131963 -25.1477 109.052 -1 -24.0000 111.000 985 -25.1477 109.052 TC -25.1287 109.017 1 -23.9031 111.158 TC 55 984 7 233
1963007S12117 1963 3 SI WA NOT_NAMED 1963-01-13 03:00:00 TS -24.6752 109.850 main 355 355 P_____P__PP_P_ SH131963 -25.1948 108.777 -1 -24.1956 110.912 985 -25.1948 108.777 TC -25.2057 108.756 1 -24.0800 111.065 TC 55 984 6 240
1963007S12117 1963 3 SI WA NOT_NAMED 1963-01-13 06:00:00 TS -24.7995 109.576 main 386 386 O_____P__OP_O_ jtwc_sh SH131963 -25.2000 108.400 -1 -24.4469 110.759 985 -25.2000 108.400 TC -25.2465 108.391 1 -24.3000 110.900 TC 55 985 5 245
1963007S12117 1963 3 SI WA NOT_NAMED 1963-01-13 09:00:00 TS -24.9044 109.302 main 417 417 P_____P__PP_P_ SH131963 -25.2223 108.050 -1 -24.6458 110.572 985 -25.2223 108.050 TC -25.2282 108.039 1 -24.5299 110.723 TC 55 985 5 249
1963007S12117 1963 3 SI WA NOT_NAMED 1963-01-13 10:00:00 TS -24.9299 109.208 986 bom main 427 427 P_____O__PP_P_ SH131963 -25.2211 107.936 -1 -24.7000 110.500 986 -25.2211 107.936 TC -25.2149 107.921 1 -24.5957 110.655 TC 55 985 5 255
1963007S12117 1963 3 SI WA NOT_NAMED 1963-01-13 11:00:00 TS -24.9501 109.111 main 438 438 P_____P__PO_P_ SH131963 -25.2139 107.820 -1 -24.7481 110.423 -25.2139 107.820 TC -25.2000 107.800 2 -24.6530 110.581 TC 55 985 6 260
1963007S12117 1963 3 SI WA NOT_NAMED 1963-01-13 12:00:00 TS -24.9628 109.009 main 448 448 O_____P__OP_O_ jtwc_sh SH131963 -25.2000 107.700 -1 -24.7905 110.342 -25.2000 107.700 TC -25.1745 107.672 2 -24.7000 110.500 TC 55 986 6 269
1963007S12117 1963 3 SI WA NOT_NAMED 1963-01-13 15:00:00 TS -24.9553 108.679 main 477 477 P_____P__PP_P_ SH131963 -25.0999 107.307 -1 -24.8871 110.072 -25.0999 107.307 TC -25.0667 107.283 2 -24.7650 110.215 TC 55 986 6 273
1963007S12117 1963 3 SI WA NOT_NAMED 1963-01-13 18:00:00 TS -24.9335 108.331 main 518 518 O_____P__OP_O_ jtwc_sh SH131963 -25.0000 106.900 -1 -24.9462 109.771 -25.0000 106.900 TC -24.9659 106.886 2 -24.8000 109.900 TC 55 986 8 271
1963007S12117 1963 3 SI WA NOT_NAMED 1963-01-13 21:00:00 TS -24.9378 107.851 main 557 557 P_____P__PP_P_ SH131963 -24.9323 106.515 -1 -24.9788 109.448 -24.9323 106.515 TC -24.9407 106.479 2 -24.8826 109.595 TC 52 986 11 267
1963007S12117 1963 3 SI WA NOT_NAMED 1963-01-13 23:00:00 TS -24.9735 107.348 main 613 613 P_____P__PO_P_ SH131963 -24.9546 106.244 -1 -24.9912 109.225 -24.9546 106.244 TC -25.0000 106.200 1 -24.9592 109.398 TC 50 986 18 265
1963007S12117 1963 3 SI WA NOT_NAMED 1963-01-14 00:00:00 TS -25.0153 106.852 main 653 653 O_____P__OP_O_ jtwc_sh SH131963 -25.0000 106.100 -1 -24.9958 109.113 -25.0000 106.100 TC -25.0632 106.050 1 -25.0000 109.300 TC 50 987 32 264
1963007S12117 1963 3 SI WA NOT_NAMED 1963-01-14 01:00:00 TS -25.0848 106.162 988 bom main 720 720 P_____O__PP___ SH131963 -25.0663 105.940 -1 -25.0000 109.000 988 -25.0663 105.940 TC -25.1431 105.897 1 TC 23 256
1963007S12117 1963 3 SI WA NOT_NAMED 1963-01-14 03:00:00 TS -25.2945 105.595 main 775 775 P________PP___ SH131963 -25.2676 105.600 -1 -25.2676 105.600 TC -25.3481 105.585 1 TC 14 236
1963007S12117 1963 3 SI WA NOT_NAMED 1963-01-14 06:00:00 TS -25.7170 105.106 main 820 819 O________OP___ jtwc_sh SH131963 -25.7000 105.100 -1 -25.7000 105.100 TC -25.7511 105.117 1 13 222
1963007S12117 1963 3 SI WA NOT_NAMED 1963-01-14 09:00:00 TS -26.2268 104.675 main 856 856 P________PP___ SH131963 -26.2198 104.677 -1 -26.2198 104.677 TC -26.2407 104.672 1 13 215
1963007S12117 1963 3 SI WA NOT_NAMED 1963-01-14 11:00:00 TS -26.6041 104.415 main 885 885 P________PO___ SH131963 -26.6061 104.422 -1 -26.6061 104.422 TC -26.6000 104.400 1 13 211
1963007S12117 1963 3 SI WA NOT_NAMED 1963-01-14 12:00:00 TS -26.7945 104.290 main 895 895 O________OP___ jtwc_sh SH131963 -26.8000 104.300 -1 -26.8000 104.300 TC -26.7862 104.275 1 13 209
1963007S12117 1963 3 SI WA NOT_NAMED 1963-01-14 15:00:00 TS -27.3626 103.941 main 939 939 P________PP___ SH131963 -27.3602 103.946 -1 -27.3602 103.946 TC -27.3650 103.936 1 13 207
1963007S12117 1963 3 SI WA NOT_NAMED 1963-01-14 18:00:00 TS -27.9405 103.625 main 975 975 O________OP___ jtwc_sh SH131963 -27.9000 103.600 -1 -27.9000 103.600 TC -27.9676 103.641 1 13 202
1963007S12117 1963 3 SI WA NOT_NAMED 1963-01-14 21:00:00 NR -28.5848 103.373 main 1008 1008 __________P___ SH131963 -1 TC -28.5848 103.373 1 14 199
1963007S12117 1963 3 SI WA NOT_NAMED 1963-01-14 23:00:00 NR -29.0000 103.200 main 1038 __________O___ SH131963 -1 TC -29.0000 103.200 1 13 200

About IBTrACS Database

This database is a web-friendly format of International Best Track Archive for Climate Stewardship (IBTrACS), a global best track data archive curated by NOAA dating back to 1842.

Updated: 2021-10-08